sensor_id;sensor_type;location;lat;lon;timestamp;temperature;humidity
13186;DHT22;6658;53.080;7.428;2022-07-25T00:01:58;20.60;99.90
13186;DHT22;6658;53.080;7.428;2022-07-25T00:04:24;20.50;99.90
13186;DHT22;6658;53.080;7.428;2022-07-25T00:06:50;20.50;99.90
13186;DHT22;6658;53.080;7.428;2022-07-25T00:09:15;20.50;99.90
13186;DHT22;6658;53.080;7.428;2022-07-25T00:11:41;20.40;99.90
13186;DHT22;6658;53.080;7.428;2022-07-25T00:14:07;20.40;99.90
13186;DHT22;6658;53.080;7.428;2022-07-25T00:16:33;20.40;99.90
13186;DHT22;6658;53.080;7.428;2022-07-25T00:18:59;20.40;99.90
13186;DHT22;6658;53.080;7.428;2022-07-25T00:21:24;20.30;99.90
13186;DHT22;6658;53.080;7.428;2022-07-25T00:23:50;20.30;99.90
13186;DHT22;6658;53.080;7.428;2022-07-25T00:26:16;20.30;99.90
13186;DHT22;6658;53.080;7.428;2022-07-25T00:28:42;20.30;99.90
13186;DHT22;6658;53.080;7.428;2022-07-25T00:31:08;20.30;99.90
13186;DHT22;6658;53.080;7.428;2022-07-25T00:33:33;20.30;99.90
13186;DHT22;6658;53.080;7.428;2022-07-25T00:35:59;20.20;99.90
13186;DHT22;6658;53.080;7.428;2022-07-25T00:38:25;20.20;99.90
13186;DHT22;6658;53.080;7.428;2022-07-25T00:40:50;20.20;99.90
13186;DHT22;6658;53.080;7.428;2022-07-25T00:43:16;20.20;99.90
13186;DHT22;6658;53.080;7.428;2022-07-25T00:45:41;20.10;99.90
13186;DHT22;6658;53.080;7.428;2022-07-25T00:48:07;20.10;99.90
13186;DHT22;6658;53.080;7.428;2022-07-25T00:50:34;20.10;99.90
13186;DHT22;6658;53.080;7.428;2022-07-25T00:53:00;20.10;99.90
13186;DHT22;6658;53.080;7.428;2022-07-25T00:55:26;20.00;99.90
13186;DHT22;6658;53.080;7.428;2022-07-25T00:57:52;20.00;99.90
13186;DHT22;6658;53.080;7.428;2022-07-25T01:00:18;20.00;99.90
13186;DHT22;6658;53.080;7.428;2022-07-25T01:02:44;20.00;99.90
13186;DHT22;6658;53.080;7.428;2022-07-25T01:05:10;19.90;99.90
13186;DHT22;6658;53.080;7.428;2022-07-25T01:07:37;19.90;99.90
13186;DHT22;6658;53.080;7.428;2022-07-25T01:10:04;19.90;99.90
13186;DHT22;6658;53.080;7.428;2022-07-25T01:12:30;19.90;99.90
13186;DHT22;6658;53.080;7.428;2022-07-25T01:14:56;19.90;99.90
13186;DHT22;6658;53.080;7.428;2022-07-25T01:17:23;19.80;99.90
13186;DHT22;6658;53.080;7.428;2022-07-25T01:19:48;19.80;99.90
13186;DHT22;6658;53.080;7.428;2022-07-25T01:22:15;19.80;99.90
13186;DHT22;6658;53.080;7.428;2022-07-25T01:24:41;19.70;99.90
13186;DHT22;6658;53.080;7.428;2022-07-25T01:27:07;19.70;99.90
13186;DHT22;6658;53.080;7.428;2022-07-25T01:29:33;19.70;99.90
13186;DHT22;6658;53.080;7.428;2022-07-25T01:31:58;19.70;99.90
13186;DHT22;6658;53.080;7.428;2022-07-25T01:34:24;19.60;99.90
13186;DHT22;6658;53.080;7.428;2022-07-25T01:36:49;19.60;99.90
13186;DHT22;6658;53.080;7.428;2022-07-25T01:39:15;19.60;99.90
13186;DHT22;6658;53.080;7.428;2022-07-25T01:41:41;19.60;99.90
13186;DHT22;6658;53.080;7.428;2022-07-25T01:44:06;19.60;99.90
13186;DHT22;6658;53.080;7.428;2022-07-25T01:46:32;19.60;99.90
13186;DHT22;6658;53.080;7.428;2022-07-25T01:48:58;19.60;99.90
13186;DHT22;6658;53.080;7.428;2022-07-25T01:51:24;19.60;99.90
13186;DHT22;6658;53.080;7.428;2022-07-25T01:53:49;19.60;99.90
13186;DHT22;6658;53.080;7.428;2022-07-25T01:56:15;19.60;99.90
13186;DHT22;6658;53.080;7.428;2022-07-25T01:58:41;19.50;99.90
13186;DHT22;6658;53.080;7.428;2022-07-25T02:01:07;19.50;99.90
13186;DHT22;6658;53.080;7.428;2022-07-25T02:03:32;19.50;99.90
13186;DHT22;6658;53.080;7.428;2022-07-25T02:06:03;19.50;99.90
13186;DHT22;6658;53.080;7.428;2022-07-25T02:08:30;19.50;99.90
13186;DHT22;6658;53.080;7.428;2022-07-25T02:10:57;19.50;99.90
13186;DHT22;6658;53.080;7.428;2022-07-25T02:13:23;19.50;99.90
13186;DHT22;6658;53.080;7.428;2022-07-25T02:15:49;19.50;99.90
13186;DHT22;6658;53.080;7.428;2022-07-25T02:18:14;19.50;99.90
13186;DHT22;6658;53.080;7.428;2022-07-25T02:20:40;19.50;99.90
13186;DHT22;6658;53.080;7.428;2022-07-25T02:23:06;19.50;99.90
13186;DHT22;6658;53.080;7.428;2022-07-25T02:25:32;19.50;99.90
13186;DHT22;6658;53.080;7.428;2022-07-25T02:27:58;19.50;99.90
13186;DHT22;6658;53.080;7.428;2022-07-25T02:30:24;19.60;99.90
13186;DHT22;6658;53.080;7.428;2022-07-25T02:32:50;19.60;99.90
13186;DHT22;6658;53.080;7.428;2022-07-25T02:35:16;19.70;99.90
13186;DHT22;6658;53.080;7.428;2022-07-25T02:37:42;19.70;99.90
13186;DHT22;6658;53.080;7.428;2022-07-25T02:40:08;19.70;99.90
13186;DHT22;6658;53.080;7.428;2022-07-25T02:42:34;19.70;99.90
13186;DHT22;6658;53.080;7.428;2022-07-25T02:45:00;19.80;99.90
13186;DHT22;6658;53.080;7.428;2022-07-25T02:47:26;19.80;99.90
13186;DHT22;6658;53.080;7.428;2022-07-25T02:49:52;19.80;99.90
13186;DHT22;6658;53.080;7.428;2022-07-25T02:52:17;19.80;99.90
13186;DHT22;6658;53.080;7.428;2022-07-25T02:54:43;19.80;99.90
13186;DHT22;6658;53.080;7.428;2022-07-25T02:57:09;19.80;99.90
13186;DHT22;6658;53.080;7.428;2022-07-25T02:59:34;19.80;99.90
13186;DHT22;6658;53.080;7.428;2022-07-25T03:02:00;19.80;99.90
13186;DHT22;6658;53.080;7.428;2022-07-25T03:04:25;19.70;99.90
13186;DHT22;6658;53.080;7.428;2022-07-25T03:06:51;19.70;99.90
13186;DHT22;6658;53.080;7.428;2022-07-25T03:09:17;19.70;99.90
13186;DHT22;6658;53.080;7.428;2022-07-25T03:11:43;19.60;99.90
13186;DHT22;6658;53.080;7.428;2022-07-25T03:14:09;19.60;99.90
13186;DHT22;6658;53.080;7.428;2022-07-25T03:16:34;19.60;99.90
13186;DHT22;6658;53.080;7.428;2022-07-25T03:19:01;19.60;99.90
13186;DHT22;6658;53.080;7.428;2022-07-25T03:21:27;19.60;99.90
13186;DHT22;6658;53.080;7.428;2022-07-25T03:23:52;19.50;99.90
13186;DHT22;6658;53.080;7.428;2022-07-25T03:26:18;19.60;99.90
13186;DHT22;6658;53.080;7.428;2022-07-25T03:28:44;19.60;99.90
13186;DHT22;6658;53.080;7.428;2022-07-25T03:31:09;19.50;99.90
13186;DHT22;6658;53.080;7.428;2022-07-25T03:33:35;19.50;99.90
13186;DHT22;6658;53.080;7.428;2022-07-25T03:36:01;19.50;99.90
13186;DHT22;6658;53.080;7.428;2022-07-25T03:38:26;19.50;99.90
13186;DHT22;6658;53.080;7.428;2022-07-25T03:40:52;19.50;99.90
13186;DHT22;6658;53.080;7.428;2022-07-25T03:43:17;19.40;99.90
13186;DHT22;6658;53.080;7.428;2022-07-25T03:45:43;19.40;99.90
13186;DHT22;6658;53.080;7.428;2022-07-25T03:48:09;19.40;99.90
13186;DHT22;6658;53.080;7.428;2022-07-25T03:50:34;19.40;99.90
13186;DHT22;6658;53.080;7.428;2022-07-25T03:53:00;19.40;99.90
13186;DHT22;6658;53.080;7.428;2022-07-25T03:55:26;19.50;99.90
13186;DHT22;6658;53.080;7.428;2022-07-25T03:57:52;19.50;99.90
13186;DHT22;6658;53.080;7.428;2022-07-25T04:00:18;19.50;99.90
13186;DHT22;6658;53.080;7.428;2022-07-25T04:02:43;19.50;99.90
13186;DHT22;6658;53.080;7.428;2022-07-25T04:05:09;19.60;99.90
13186;DHT22;6658;53.080;7.428;2022-07-25T04:07:35;19.60;99.90
13186;DHT22;6658;53.080;7.428;2022-07-25T04:10:02;19.60;99.90
13186;DHT22;6658;53.080;7.428;2022-07-25T04:12:31;19.60;99.90
13186;DHT22;6658;53.080;7.428;2022-07-25T04:14:57;19.60;99.90
13186;DHT22;6658;53.080;7.428;2022-07-25T04:17:23;19.70;99.90
13186;DHT22;6658;53.080;7.428;2022-07-25T04:19:48;19.70;99.90
13186;DHT22;6658;53.080;7.428;2022-07-25T04:22:14;19.70;99.90
13186;DHT22;6658;53.080;7.428;2022-07-25T04:24:40;19.70;99.90
13186;DHT22;6658;53.080;7.428;2022-07-25T04:27:05;19.80;99.90
13186;DHT22;6658;53.080;7.428;2022-07-25T04:29:31;19.90;99.90
13186;DHT22;6658;53.080;7.428;2022-07-25T04:31:57;20.00;99.90
13186;DHT22;6658;53.080;7.428;2022-07-25T04:34:22;20.20;99.90
13186;DHT22;6658;53.080;7.428;2022-07-25T04:36:48;20.40;99.90
13186;DHT22;6658;53.080;7.428;2022-07-25T04:39:14;20.70;99.90
13186;DHT22;6658;53.080;7.428;2022-07-25T04:41:39;21.00;99.90
13186;DHT22;6658;53.080;7.428;2022-07-25T04:44:05;21.30;99.90
13186;DHT22;6658;53.080;7.428;2022-07-25T04:46:32;21.50;99.90
13186;DHT22;6658;53.080;7.428;2022-07-25T04:48:58;21.90;99.90
13186;DHT22;6658;53.080;7.428;2022-07-25T04:51:23;22.30;99.90
13186;DHT22;6658;53.080;7.428;2022-07-25T04:53:49;22.60;99.90
13186;DHT22;6658;53.080;7.428;2022-07-25T04:56:15;22.70;99.90
13186;DHT22;6658;53.080;7.428;2022-07-25T04:58:41;22.60;99.90
13186;DHT22;6658;53.080;7.428;2022-07-25T05:01:06;22.50;99.90
13186;DHT22;6658;53.080;7.428;2022-07-25T05:03:32;22.40;99.90
13186;DHT22;6658;53.080;7.428;2022-07-25T05:05:58;22.20;99.90
13186;DHT22;6658;53.080;7.428;2022-07-25T05:08:23;22.20;99.90
13186;DHT22;6658;53.080;7.428;2022-07-25T05:10:49;22.20;99.90
13186;DHT22;6658;53.080;7.428;2022-07-25T05:13:15;22.20;99.90
13186;DHT22;6658;53.080;7.428;2022-07-25T05:15:41;22.20;99.90
13186;DHT22;6658;53.080;7.428;2022-07-25T05:18:06;22.10;99.90
13186;DHT22;6658;53.080;7.428;2022-07-25T05:20:32;22.00;99.90
13186;DHT22;6658;53.080;7.428;2022-07-25T05:22:58;22.00;99.90
13186;DHT22;6658;53.080;7.428;2022-07-25T05:25:23;22.00;99.90
13186;DHT22;6658;53.080;7.428;2022-07-25T05:27:49;22.00;99.90
13186;DHT22;6658;53.080;7.428;2022-07-25T05:30:16;22.10;99.90
13186;DHT22;6658;53.080;7.428;2022-07-25T05:32:42;22.10;99.90
13186;DHT22;6658;53.080;7.428;2022-07-25T05:35:08;22.10;99.90
13186;DHT22;6658;53.080;7.428;2022-07-25T05:37:34;22.10;99.90
13186;DHT22;6658;53.080;7.428;2022-07-25T05:40:00;22.10;99.90
13186;DHT22;6658;53.080;7.428;2022-07-25T05:42:27;22.20;99.90
13186;DHT22;6658;53.080;7.428;2022-07-25T05:44:53;22.30;99.90
13186;DHT22;6658;53.080;7.428;2022-07-25T05:47:18;22.50;99.90
13186;DHT22;6658;53.080;7.428;2022-07-25T05:49:44;22.60;99.90
13186;DHT22;6658;53.080;7.428;2022-07-25T05:52:10;22.70;99.90
13186;DHT22;6658;53.080;7.428;2022-07-25T05:54:36;22.70;99.90
13186;DHT22;6658;53.080;7.428;2022-07-25T05:57:01;22.80;99.90
13186;DHT22;6658;53.080;7.428;2022-07-25T05:59:27;22.80;99.90
13186;DHT22;6658;53.080;7.428;2022-07-25T06:01:53;22.80;99.90
13186;DHT22;6658;53.080;7.428;2022-07-25T06:04:19;22.90;99.90
13186;DHT22;6658;53.080;7.428;2022-07-25T06:06:45;22.90;99.90
13186;DHT22;6658;53.080;7.428;2022-07-25T06:09:19;23.10;99.90
13186;DHT22;6658;53.080;7.428;2022-07-25T06:11:47;23.30;99.90
13186;DHT22;6658;53.080;7.428;2022-07-25T06:14:13;23.50;99.90
13186;DHT22;6658;53.080;7.428;2022-07-25T06:16:39;23.70;99.90
13186;DHT22;6658;53.080;7.428;2022-07-25T06:19:05;23.90;99.90
13186;DHT22;6658;53.080;7.428;2022-07-25T06:21:30;24.10;99.90
13186;DHT22;6658;53.080;7.428;2022-07-25T06:23:56;24.30;99.90
13186;DHT22;6658;53.080;7.428;2022-07-25T06:26:22;24.50;99.90
13186;DHT22;6658;53.080;7.428;2022-07-25T06:28:49;24.60;99.90
13186;DHT22;6658;53.080;7.428;2022-07-25T06:31:15;24.70;99.90
13186;DHT22;6658;53.080;7.428;2022-07-25T06:33:41;25.00;99.90
13186;DHT22;6658;53.080;7.428;2022-07-25T06:36:07;25.20;99.90
13186;DHT22;6658;53.080;7.428;2022-07-25T06:38:33;25.40;99.90
13186;DHT22;6658;53.080;7.428;2022-07-25T06:40:58;25.70;99.90
13186;DHT22;6658;53.080;7.428;2022-07-25T06:43:24;25.90;99.90
13186;DHT22;6658;53.080;7.428;2022-07-25T06:45:49;26.20;99.90
13186;DHT22;6658;53.080;7.428;2022-07-25T06:48:15;26.30;99.90
13186;DHT22;6658;53.080;7.428;2022-07-25T06:50:41;26.30;99.90
13186;DHT22;6658;53.080;7.428;2022-07-25T06:53:07;26.40;99.90
13186;DHT22;6658;53.080;7.428;2022-07-25T06:55:33;26.60;99.90
13186;DHT22;6658;53.080;7.428;2022-07-25T06:57:59;26.70;99.90
13186;DHT22;6658;53.080;7.428;2022-07-25T07:00:24;26.90;99.90
13186;DHT22;6658;53.080;7.428;2022-07-25T07:05:23;27.10;99.90
13186;DHT22;6658;53.080;7.428;2022-07-25T07:07:49;27.30;99.90
13186;DHT22;6658;53.080;7.428;2022-07-25T07:10:16;27.40;99.90
13186;DHT22;6658;53.080;7.428;2022-07-25T07:12:43;27.50;99.90
13186;DHT22;6658;53.080;7.428;2022-07-25T07:15:09;27.50;99.90
13186;DHT22;6658;53.080;7.428;2022-07-25T07:17:36;27.30;99.90
13186;DHT22;6658;53.080;7.428;2022-07-25T07:20:02;27.30;99.90
13186;DHT22;6658;53.080;7.428;2022-07-25T07:22:28;27.10;99.90
13186;DHT22;6658;53.080;7.428;2022-07-25T07:24:54;27.00;99.90
13186;DHT22;6658;53.080;7.428;2022-07-25T07:27:20;26.90;99.90
13186;DHT22;6658;53.080;7.428;2022-07-25T07:29:48;26.80;99.90
13186;DHT22;6658;53.080;7.428;2022-07-25T07:32:14;26.70;99.90
13186;DHT22;6658;53.080;7.428;2022-07-25T07:34:39;26.60;99.90
13186;DHT22;6658;53.080;7.428;2022-07-25T07:37:05;26.60;99.90
13186;DHT22;6658;53.080;7.428;2022-07-25T07:39:31;26.70;99.90
13186;DHT22;6658;53.080;7.428;2022-07-25T07:41:56;26.90;99.90
13186;DHT22;6658;53.080;7.428;2022-07-25T07:44:22;26.90;99.90
13186;DHT22;6658;53.080;7.428;2022-07-25T07:46:47;27.00;99.90
13186;DHT22;6658;53.080;7.428;2022-07-25T07:49:13;27.00;99.90
13186;DHT22;6658;53.080;7.428;2022-07-25T07:51:39;27.10;99.90
13186;DHT22;6658;53.080;7.428;2022-07-25T07:54:05;27.50;99.90
13186;DHT22;6658;53.080;7.428;2022-07-25T07:56:49;28.00;99.90
13186;DHT22;6658;53.080;7.428;2022-07-25T07:59:14;28.40;99.90
13186;DHT22;6658;53.080;7.428;2022-07-25T08:01:40;28.70;99.90
13186;DHT22;6658;53.080;7.428;2022-07-25T08:04:06;29.30;99.90
13186;DHT22;6658;53.080;7.428;2022-07-25T08:06:32;29.90;99.90
13186;DHT22;6658;53.080;7.428;2022-07-25T08:08:57;30.40;99.90
13186;DHT22;6658;53.080;7.428;2022-07-25T08:11:23;30.80;99.90
13186;DHT22;6658;53.080;7.428;2022-07-25T08:13:51;31.20;98.30
13186;DHT22;6658;53.080;7.428;2022-07-25T08:16:17;31.40;97.50
13186;DHT22;6658;53.080;7.428;2022-07-25T08:18:43;31.60;97.40
13186;DHT22;6658;53.080;7.428;2022-07-25T08:21:09;31.80;98.40
13186;DHT22;6658;53.080;7.428;2022-07-25T08:23:35;32.00;97.10
13186;DHT22;6658;53.080;7.428;2022-07-25T08:26:03;32.40;95.60
13186;DHT22;6658;53.080;7.428;2022-07-25T08:28:30;32.30;95.00
13186;DHT22;6658;53.080;7.428;2022-07-25T08:30:56;32.00;94.80
13186;DHT22;6658;53.080;7.428;2022-07-25T08:33:24;31.70;95.20
13186;DHT22;6658;53.080;7.428;2022-07-25T08:35:52;31.20;95.00
13186;DHT22;6658;53.080;7.428;2022-07-25T08:38:23;30.30;96.00
13186;DHT22;6658;53.080;7.428;2022-07-25T08:40:50;30.10;97.70
13186;DHT22;6658;53.080;7.428;2022-07-25T08:43:16;29.90;97.60
13186;DHT22;6658;53.080;7.428;2022-07-25T08:45:44;29.60;97.90
13186;DHT22;6658;53.080;7.428;2022-07-25T08:48:10;29.20;98.60
13186;DHT22;6658;53.080;7.428;2022-07-25T08:50:38;29.20;99.10
13186;DHT22;6658;53.080;7.428;2022-07-25T08:53:04;29.10;99.90
13186;DHT22;6658;53.080;7.428;2022-07-25T08:55:30;29.20;99.90
13186;DHT22;6658;53.080;7.428;2022-07-25T08:57:55;29.30;99.70
13186;DHT22;6658;53.080;7.428;2022-07-25T09:00:27;29.40;99.90
13186;DHT22;6658;53.080;7.428;2022-07-25T09:03:01;29.40;99.90
13186;DHT22;6658;53.080;7.428;2022-07-25T09:05:29;29.40;99.90
13186;DHT22;6658;53.080;7.428;2022-07-25T09:07:56;29.20;99.90
13186;DHT22;6658;53.080;7.428;2022-07-25T09:10:23;28.90;99.90
13186;DHT22;6658;53.080;7.428;2022-07-25T09:12:59;28.50;99.90
13186;DHT22;6658;53.080;7.428;2022-07-25T09:15:36;28.40;99.90
13186;DHT22;6658;53.080;7.428;2022-07-25T09:18:05;28.70;99.90
13186;DHT22;6658;53.080;7.428;2022-07-25T09:20:37;28.60;99.90
13186;DHT22;6658;53.080;7.428;2022-07-25T09:23:04;28.50;99.90
13186;DHT22;6658;53.080;7.428;2022-07-25T09:25:30;28.40;99.90
13186;DHT22;6658;53.080;7.428;2022-07-25T09:28:15;28.50;99.90
13186;DHT22;6658;53.080;7.428;2022-07-25T09:30:52;28.60;99.90
13186;DHT22;6658;53.080;7.428;2022-07-25T09:33:20;28.60;99.90
13186;DHT22;6658;53.080;7.428;2022-07-25T09:35:46;28.70;99.90
13186;DHT22;6658;53.080;7.428;2022-07-25T09:38:13;28.70;99.90
13186;DHT22;6658;53.080;7.428;2022-07-25T09:40:41;28.70;99.90
13186;DHT22;6658;53.080;7.428;2022-07-25T09:43:07;28.80;99.90
13186;DHT22;6658;53.080;7.428;2022-07-25T09:45:32;29.00;99.90
13186;DHT22;6658;53.080;7.428;2022-07-25T09:48:00;29.00;99.90
13186;DHT22;6658;53.080;7.428;2022-07-25T09:50:28;28.90;99.90
13186;DHT22;6658;53.080;7.428;2022-07-25T09:52:56;28.70;99.90
13186;DHT22;6658;53.080;7.428;2022-07-25T09:55:23;28.80;99.90
13186;DHT22;6658;53.080;7.428;2022-07-25T09:57:49;28.80;99.90
13186;DHT22;6658;53.080;7.428;2022-07-25T10:00:22;28.70;99.90
13186;DHT22;6658;53.080;7.428;2022-07-25T10:03:19;28.60;99.90
13186;DHT22;6658;53.080;7.428;2022-07-25T10:08:26;28.30;99.90
13186;DHT22;6658;53.080;7.428;2022-07-25T10:10:53;28.10;99.90
13186;DHT22;6658;53.080;7.428;2022-07-25T10:13:31;27.90;99.90
13186;DHT22;6658;53.080;7.428;2022-07-25T10:15:57;27.60;99.90
13186;DHT22;6658;53.080;7.428;2022-07-25T10:18:25;27.40;99.90
13186;DHT22;6658;53.080;7.428;2022-07-25T10:21:09;27.30;99.90
13186;DHT22;6658;53.080;7.428;2022-07-25T10:23:35;28.00;99.90
13186;DHT22;6658;53.080;7.428;2022-07-25T10:26:10;28.20;99.90
13186;DHT22;6658;53.080;7.428;2022-07-25T10:28:39;28.10;99.90
13186;DHT22;6658;53.080;7.428;2022-07-25T10:31:35;28.00;99.90
13186;DHT22;6658;53.080;7.428;2022-07-25T10:34:03;27.90;99.90
13186;DHT22;6658;53.080;7.428;2022-07-25T10:36:45;27.80;99.90
13186;DHT22;6658;53.080;7.428;2022-07-25T10:39:12;27.80;99.90
13186;DHT22;6658;53.080;7.428;2022-07-25T10:41:40;27.70;99.90
13186;DHT22;6658;53.080;7.428;2022-07-25T10:44:12;27.80;99.90
13186;DHT22;6658;53.080;7.428;2022-07-25T10:46:38;28.00;99.90
13186;DHT22;6658;53.080;7.428;2022-07-25T10:49:06;28.00;99.90
13186;DHT22;6658;53.080;7.428;2022-07-25T10:51:36;28.00;99.90
13186;DHT22;6658;53.080;7.428;2022-07-25T10:54:17;27.90;99.90
13186;DHT22;6658;53.080;7.428;2022-07-25T10:59:34;27.30;99.90
13186;DHT22;6658;53.080;7.428;2022-07-25T11:02:01;27.10;99.90
13186;DHT22;6658;53.080;7.428;2022-07-25T11:04:27;26.90;99.90
13186;DHT22;6658;53.080;7.428;2022-07-25T11:06:53;26.70;99.90
13186;DHT22;6658;53.080;7.428;2022-07-25T11:09:20;26.50;99.90
13186;DHT22;6658;53.080;7.428;2022-07-25T11:11:49;26.20;99.90
13186;DHT22;6658;53.080;7.428;2022-07-25T11:14:28;25.90;99.90
13186;DHT22;6658;53.080;7.428;2022-07-25T11:17:14;25.80;99.90
13186;DHT22;6658;53.080;7.428;2022-07-25T11:19:42;25.70;99.90
13186;DHT22;6658;53.080;7.428;2022-07-25T11:22:08;25.70;99.90
13186;DHT22;6658;53.080;7.428;2022-07-25T11:27:05;26.20;99.90
13186;DHT22;6658;53.080;7.428;2022-07-25T11:29:31;28.20;99.90
13186;DHT22;6658;53.080;7.428;2022-07-25T11:32:01;30.20;99.90
13186;DHT22;6658;53.080;7.428;2022-07-25T11:34:30;31.70;98.90
13186;DHT22;6658;53.080;7.428;2022-07-25T11:36:58;32.40;97.30
13186;DHT22;6658;53.080;7.428;2022-07-25T11:39:25;32.30;96.40
13186;DHT22;6658;53.080;7.428;2022-07-25T11:42:06;31.70;96.40
13186;DHT22;6658;53.080;7.428;2022-07-25T11:44:37;31.30;97.20
13186;DHT22;6658;53.080;7.428;2022-07-25T11:47:06;30.90;96.90
13186;DHT22;6658;53.080;7.428;2022-07-25T11:49:44;30.40;96.90
13186;DHT22;6658;53.080;7.428;2022-07-25T11:52:27;29.70;97.50
13186;DHT22;6658;53.080;7.428;2022-07-25T11:54:59;29.00;97.80
13186;DHT22;6658;53.080;7.428;2022-07-25T11:57:28;28.30;97.90
13186;DHT22;6658;53.080;7.428;2022-07-25T11:59:54;27.60;99.90
13186;DHT22;6658;53.080;7.428;2022-07-25T12:02:25;27.00;99.90
13186;DHT22;6658;53.080;7.428;2022-07-25T12:05:01;26.40;99.90
13186;DHT22;6658;53.080;7.428;2022-07-25T12:07:44;25.80;99.90
13186;DHT22;6658;53.080;7.428;2022-07-25T12:15:11;24.90;99.90
13186;DHT22;6658;53.080;7.428;2022-07-25T12:17:40;24.80;99.90
13186;DHT22;6658;53.080;7.428;2022-07-25T12:20:15;24.90;99.90
13186;DHT22;6658;53.080;7.428;2022-07-25T12:22:41;25.20;99.90
13186;DHT22;6658;53.080;7.428;2022-07-25T12:25:07;25.20;99.90
13186;DHT22;6658;53.080;7.428;2022-07-25T12:27:33;25.40;99.90
13186;DHT22;6658;53.080;7.428;2022-07-25T12:29:59;25.40;99.90
13186;DHT22;6658;53.080;7.428;2022-07-25T12:32:24;25.50;99.90
13186;DHT22;6658;53.080;7.428;2022-07-25T12:34:50;25.60;99.90
13186;DHT22;6658;53.080;7.428;2022-07-25T12:37:16;25.60;99.90
13186;DHT22;6658;53.080;7.428;2022-07-25T12:39:41;25.70;99.90
13186;DHT22;6658;53.080;7.428;2022-07-25T12:42:07;25.80;99.90
13186;DHT22;6658;53.080;7.428;2022-07-25T12:44:33;25.90;99.90
13186;DHT22;6658;53.080;7.428;2022-07-25T12:46:58;26.00;99.90
13186;DHT22;6658;53.080;7.428;2022-07-25T12:49:24;26.00;99.90
13186;DHT22;6658;53.080;7.428;2022-07-25T12:51:50;25.90;99.90
13186;DHT22;6658;53.080;7.428;2022-07-25T12:54:15;25.80;99.90
13186;DHT22;6658;53.080;7.428;2022-07-25T12:56:41;25.70;99.90
13186;DHT22;6658;53.080;7.428;2022-07-25T12:59:07;25.90;99.90
13186;DHT22;6658;53.080;7.428;2022-07-25T13:01:33;26.00;99.90
13186;DHT22;6658;53.080;7.428;2022-07-25T13:03:58;26.10;99.90
13186;DHT22;6658;53.080;7.428;2022-07-25T13:06:24;26.30;99.90
13186;DHT22;6658;53.080;7.428;2022-07-25T13:08:50;26.30;99.90
13186;DHT22;6658;53.080;7.428;2022-07-25T13:11:15;26.50;99.90
13186;DHT22;6658;53.080;7.428;2022-07-25T13:13:41;26.50;99.90
13186;DHT22;6658;53.080;7.428;2022-07-25T13:16:07;26.50;99.90
13186;DHT22;6658;53.080;7.428;2022-07-25T13:18:32;26.50;99.90
13186;DHT22;6658;53.080;7.428;2022-07-25T13:20:58;26.40;99.90
13186;DHT22;6658;53.080;7.428;2022-07-25T13:23:28;26.50;99.90
13186;DHT22;6658;53.080;7.428;2022-07-25T13:25:53;26.60;99.90
13186;DHT22;6658;53.080;7.428;2022-07-25T13:28:19;26.80;99.90
13186;DHT22;6658;53.080;7.428;2022-07-25T13:30:45;26.80;99.90
13186;DHT22;6658;53.080;7.428;2022-07-25T13:33:11;26.80;99.90
13186;DHT22;6658;53.080;7.428;2022-07-25T13:35:37;26.80;99.90
13186;DHT22;6658;53.080;7.428;2022-07-25T13:38:03;26.50;99.90
13186;DHT22;6658;53.080;7.428;2022-07-25T13:40:28;26.00;99.90
13186;DHT22;6658;53.080;7.428;2022-07-25T13:42:54;25.60;99.90
13186;DHT22;6658;53.080;7.428;2022-07-25T13:45:20;25.40;99.90
13186;DHT22;6658;53.080;7.428;2022-07-25T13:47:45;25.50;99.90
13186;DHT22;6658;53.080;7.428;2022-07-25T13:50:11;25.70;99.90
13186;DHT22;6658;53.080;7.428;2022-07-25T13:52:37;25.90;99.90
13186;DHT22;6658;53.080;7.428;2022-07-25T13:55:02;26.00;99.90
13186;DHT22;6658;53.080;7.428;2022-07-25T13:57:28;25.90;99.90
13186;DHT22;6658;53.080;7.428;2022-07-25T13:59:56;25.60;99.90
13186;DHT22;6658;53.080;7.428;2022-07-25T14:02:21;25.40;99.90
13186;DHT22;6658;53.080;7.428;2022-07-25T14:04:47;25.30;99.90
13186;DHT22;6658;53.080;7.428;2022-07-25T14:07:13;25.30;99.90
13186;DHT22;6658;53.080;7.428;2022-07-25T14:09:39;25.40;99.90
13186;DHT22;6658;53.080;7.428;2022-07-25T14:12:04;25.40;99.90
13186;DHT22;6658;53.080;7.428;2022-07-25T14:14:30;25.40;99.90
13186;DHT22;6658;53.080;7.428;2022-07-25T14:16:56;25.40;99.90
13186;DHT22;6658;53.080;7.428;2022-07-25T14:19:22;25.60;99.90
13186;DHT22;6658;53.080;7.428;2022-07-25T14:21:48;25.60;99.90
13186;DHT22;6658;53.080;7.428;2022-07-25T14:24:14;25.80;99.90
13186;DHT22;6658;53.080;7.428;2022-07-25T14:26:39;25.80;99.90
13186;DHT22;6658;53.080;7.428;2022-07-25T14:29:05;25.80;99.90
13186;DHT22;6658;53.080;7.428;2022-07-25T14:31:36;25.60;99.90
13186;DHT22;6658;53.080;7.428;2022-07-25T14:34:02;25.60;99.90
13186;DHT22;6658;53.080;7.428;2022-07-25T14:36:27;25.50;99.90
13186;DHT22;6658;53.080;7.428;2022-07-25T14:38:53;25.30;99.90
13186;DHT22;6658;53.080;7.428;2022-07-25T14:41:19;25.20;99.90
13186;DHT22;6658;53.080;7.428;2022-07-25T14:43:44;25.20;99.90
13186;DHT22;6658;53.080;7.428;2022-07-25T14:46:10;25.20;99.90
13186;DHT22;6658;53.080;7.428;2022-07-25T14:48:36;24.90;99.90
13186;DHT22;6658;53.080;7.428;2022-07-25T14:51:02;24.50;99.90
13186;DHT22;6658;53.080;7.428;2022-07-25T14:53:28;24.20;99.90
13186;DHT22;6658;53.080;7.428;2022-07-25T14:55:54;24.00;99.90
13186;DHT22;6658;53.080;7.428;2022-07-25T14:58:19;24.10;99.90
13186;DHT22;6658;53.080;7.428;2022-07-25T15:00:45;24.10;99.90
13186;DHT22;6658;53.080;7.428;2022-07-25T15:03:11;24.30;99.90
13186;DHT22;6658;53.080;7.428;2022-07-25T15:05:40;24.30;99.90
13186;DHT22;6658;53.080;7.428;2022-07-25T15:08:06;24.40;99.90
13186;DHT22;6658;53.080;7.428;2022-07-25T15:10:32;24.30;99.90
13186;DHT22;6658;53.080;7.428;2022-07-25T15:12:58;24.10;99.90
13186;DHT22;6658;53.080;7.428;2022-07-25T15:15:24;24.20;99.90
13186;DHT22;6658;53.080;7.428;2022-07-25T15:17:49;24.30;99.90
13186;DHT22;6658;53.080;7.428;2022-07-25T15:20:15;24.40;99.90
13186;DHT22;6658;53.080;7.428;2022-07-25T15:22:41;24.60;99.90
13186;DHT22;6658;53.080;7.428;2022-07-25T15:25:07;24.70;99.90
13186;DHT22;6658;53.080;7.428;2022-07-25T15:27:32;24.70;99.90
13186;DHT22;6658;53.080;7.428;2022-07-25T15:29:59;24.90;99.90
13186;DHT22;6658;53.080;7.428;2022-07-25T15:32:25;25.00;99.90
13186;DHT22;6658;53.080;7.428;2022-07-25T15:34:50;24.90;99.90
13186;DHT22;6658;53.080;7.428;2022-07-25T15:37:16;24.70;99.90
13186;DHT22;6658;53.080;7.428;2022-07-25T15:39:42;24.60;99.90
13186;DHT22;6658;53.080;7.428;2022-07-25T15:42:09;24.70;99.90
13186;DHT22;6658;53.080;7.428;2022-07-25T15:44:35;25.00;99.90
13186;DHT22;6658;53.080;7.428;2022-07-25T15:47:00;25.20;99.90
13186;DHT22;6658;53.080;7.428;2022-07-25T15:49:27;25.10;99.90
13186;DHT22;6658;53.080;7.428;2022-07-25T15:51:53;25.10;99.90
13186;DHT22;6658;53.080;7.428;2022-07-25T15:54:18;25.20;99.90
13186;DHT22;6658;53.080;7.428;2022-07-25T15:56:44;25.30;99.90
13186;DHT22;6658;53.080;7.428;2022-07-25T15:59:10;25.40;99.90